Terminal Aerodrome Forecast
Issued by NWS

Home | Current Version | Previous Version | Text Only | Print | Product List | Glossary On
Versions: 1 2 3 4 5 6 7 8 9 10 11 12
000
FTUS41 KAKQ 281728
TAFPHF
TAF
KPHF 281728Z 2818/2918 09006KT P6SM SKC
     FM290100 15004KT P6SM SKC
     FM291300 21008KT P6SM SKC
     FM291600 21010KT P6SM FEW045=

USA.gov is the U.S. government's official web portal to all federal, state and local government web resources and services.